sensor_id;sensor_type;location;lat;lon;timestamp;P1;durP1;ratioP1;P2;durP2;ratioP2
52530;SDS011;38441;52.894;6.040;2023-01-08T00:01:07;5.25;;;2.70;;
52530;SDS011;38441;52.894;6.040;2023-01-08T00:03:34;5.22;;;2.42;;
52530;SDS011;38441;52.894;6.040;2023-01-08T00:06:01;4.07;;;2.67;;
52530;SDS011;38441;52.894;6.040;2023-01-08T00:08:28;4.28;;;2.42;;
52530;SDS011;38441;52.894;6.040;2023-01-08T00:10:55;7.13;;;2.63;;
52530;SDS011;38441;52.894;6.040;2023-01-08T00:13:21;4.50;;;2.50;;
52530;SDS011;38441;52.894;6.040;2023-01-08T00:15:47;5.53;;;2.72;;
52530;SDS011;38441;52.894;6.040;2023-01-08T00:18:12;5.20;;;2.55;;
52530;SDS011;38441;52.894;6.040;2023-01-08T00:20:41;4.20;;;2.38;;
52530;SDS011;38441;52.894;6.040;2023-01-08T00:23:11;8.73;;;2.95;;
52530;SDS011;38441;52.894;6.040;2023-01-08T00:25:37;4.45;;;2.45;;
52530;SDS011;38441;52.894;6.040;2023-01-08T00:28:03;6.55;;;2.20;;
52530;SDS011;38441;52.894;6.040;2023-01-08T00:30:29;4.57;;;2.58;;
52530;SDS011;38441;52.894;6.040;2023-01-08T00:32:54;5.35;;;2.65;;
52530;SDS011;38441;52.894;6.040;2023-01-08T00:35:20;4.15;;;2.30;;
52530;SDS011;38441;52.894;6.040;2023-01-08T00:37:47;3.75;;;2.05;;
52530;SDS011;38441;52.894;6.040;2023-01-08T00:40:13;4.13;;;1.98;;
52530;SDS011;38441;52.894;6.040;2023-01-08T00:42:39;4.78;;;2.40;;
52530;SDS011;38441;52.894;6.040;2023-01-08T00:45:05;3.40;;;2.03;;
52530;SDS011;38441;52.894;6.040;2023-01-08T00:47:31;4.32;;;1.92;;
52530;SDS011;38441;52.894;6.040;2023-01-08T00:49:56;4.25;;;1.90;;
52530;SDS011;38441;52.894;6.040;2023-01-08T00:52:22;2.90;;;1.70;;
52530;SDS011;38441;52.894;6.040;2023-01-08T00:54:47;4.07;;;1.73;;
52530;SDS011;38441;52.894;6.040;2023-01-08T00:57:13;4.75;;;1.98;;
52530;SDS011;38441;52.894;6.040;2023-01-08T00:59:38;6.30;;;2.33;;
52530;SDS011;38441;52.894;6.040;2023-01-08T01:02:04;4.03;;;2.10;;
52530;SDS011;38441;52.894;6.040;2023-01-08T01:04:30;5.95;;;2.15;;
52530;SDS011;38441;52.894;6.040;2023-01-08T01:06:55;4.53;;;2.47;;
52530;SDS011;38441;52.894;6.040;2023-01-08T01:09:21;4.95;;;2.47;;
52530;SDS011;38441;52.894;6.040;2023-01-08T01:11:47;6.43;;;2.53;;
52530;SDS011;38441;52.894;6.040;2023-01-08T01:14:12;6.25;;;2.47;;
52530;SDS011;38441;52.894;6.040;2023-01-08T01:16:38;4.22;;;2.20;;
52530;SDS011;38441;52.894;6.040;2023-01-08T01:19:05;4.28;;;2.03;;
52530;SDS011;38441;52.894;6.040;2023-01-08T01:21:31;5.63;;;1.77;;
52530;SDS011;38441;52.894;6.040;2023-01-08T01:23:57;4.35;;;1.83;;
52530;SDS011;38441;52.894;6.040;2023-01-08T01:26:25;7.15;;;2.13;;
52530;SDS011;38441;52.894;6.040;2023-01-08T01:28:52;3.95;;;1.83;;
52530;SDS011;38441;52.894;6.040;2023-01-08T01:31:19;3.60;;;1.40;;
52530;SDS011;38441;52.894;6.040;2023-01-08T01:33:45;5.00;;;1.60;;
52530;SDS011;38441;52.894;6.040;2023-01-08T01:36:11;6.40;;;1.45;;
52530;SDS011;38441;52.894;6.040;2023-01-08T01:38:45;5.53;;;1.52;;
52530;SDS011;38441;52.894;6.040;2023-01-08T01:41:17;6.25;;;1.25;;
52530;SDS011;38441;52.894;6.040;2023-01-08T01:43:48;6.43;;;1.35;;
52530;SDS011;38441;52.894;6.040;2023-01-08T01:46:32;5.60;;;1.13;;
52530;SDS011;38441;52.894;6.040;2023-01-08T01:49:02;6.18;;;0.98;;
52530;SDS011;38441;52.894;6.040;2023-01-08T01:51:35;6.45;;;1.30;;
52530;SDS011;38441;52.894;6.040;2023-01-08T01:54:03;5.35;;;1.13;;
52530;SDS011;38441;52.894;6.040;2023-01-08T01:56:33;3.92;;;1.40;;
52530;SDS011;38441;52.894;6.040;2023-01-08T01:58:59;5.72;;;1.17;;
52530;SDS011;38441;52.894;6.040;2023-01-08T02:01:25;9.80;;;1.05;;
52530;SDS011;38441;52.894;6.040;2023-01-08T02:03:52;4.63;;;1.40;;
52530;SDS011;38441;52.894;6.040;2023-01-08T02:06:22;6.85;;;1.25;;
52530;SDS011;38441;52.894;6.040;2023-01-08T02:12:05;4.78;;;1.00;;
52530;SDS011;38441;52.894;6.040;2023-01-08T02:15:02;8.70;;;1.30;;
52530;SDS011;38441;52.894;6.040;2023-01-08T02:22:46;5.18;;;1.00;;
52530;SDS011;38441;52.894;6.040;2023-01-08T02:28:30;7.35;;;0.90;;
52530;SDS011;38441;52.894;6.040;2023-01-08T02:31:00;6.68;;;1.65;;
52530;SDS011;38441;52.894;6.040;2023-01-08T02:33:27;12.00;;;1.52;;
52530;SDS011;38441;52.894;6.040;2023-01-08T02:35:54;6.85;;;1.40;;
52530;SDS011;38441;52.894;6.040;2023-01-08T02:38:53;6.55;;;1.42;;
52530;SDS011;38441;52.894;6.040;2023-01-08T02:44:25;9.48;;;1.50;;
52530;SDS011;38441;52.894;6.040;2023-01-08T02:47:04;7.68;;;1.40;;
52530;SDS011;38441;52.894;6.040;2023-01-08T02:49:34;8.35;;;1.75;;
52530;SDS011;38441;52.894;6.040;2023-01-08T02:52:05;7.78;;;1.60;;
52530;SDS011;38441;52.894;6.040;2023-01-08T02:54:33;7.47;;;1.40;;
52530;SDS011;38441;52.894;6.040;2023-01-08T02:57:02;7.28;;;1.45;;
52530;SDS011;38441;52.894;6.040;2023-01-08T02:59:32;5.88;;;1.45;;
52530;SDS011;38441;52.894;6.040;2023-01-08T03:02:00;6.85;;;1.38;;
52530;SDS011;38441;52.894;6.040;2023-01-08T03:04:26;6.68;;;1.40;;
52530;SDS011;38441;52.894;6.040;2023-01-08T03:06:58;7.97;;;1.20;;
52530;SDS011;38441;52.894;6.040;2023-01-08T03:09:24;7.53;;;1.58;;
52530;SDS011;38441;52.894;6.040;2023-01-08T03:11:56;7.20;;;1.50;;
52530;SDS011;38441;52.894;6.040;2023-01-08T03:14:33;8.13;;;1.40;;
52530;SDS011;38441;52.894;6.040;2023-01-08T03:17:07;9.60;;;2.13;;
52530;SDS011;38441;52.894;6.040;2023-01-08T03:19:42;6.18;;;1.55;;
52530;SDS011;38441;52.894;6.040;2023-01-08T03:22:13;5.25;;;1.35;;
52530;SDS011;38441;52.894;6.040;2023-01-08T03:24:41;9.48;;;1.92;;
52530;SDS011;38441;52.894;6.040;2023-01-08T03:27:13;6.25;;;1.35;;
52530;SDS011;38441;52.894;6.040;2023-01-08T03:29:42;4.57;;;1.45;;
52530;SDS011;38441;52.894;6.040;2023-01-08T03:32:12;4.57;;;1.63;;
52530;SDS011;38441;52.894;6.040;2023-01-08T03:34:39;8.38;;;1.65;;
52530;SDS011;38441;52.894;6.040;2023-01-08T03:37:08;6.80;;;2.20;;
52530;SDS011;38441;52.894;6.040;2023-01-08T03:39:40;7.55;;;1.50;;
52530;SDS011;38441;52.894;6.040;2023-01-08T03:42:10;6.30;;;1.90;;
52530;SDS011;38441;52.894;6.040;2023-01-08T03:44:38;4.68;;;1.55;;
52530;SDS011;38441;52.894;6.040;2023-01-08T03:47:03;3.67;;;1.40;;
52530;SDS011;38441;52.894;6.040;2023-01-08T03:49:31;3.80;;;1.40;;
52530;SDS011;38441;52.894;6.040;2023-01-08T03:51:58;4.03;;;1.77;;
52530;SDS011;38441;52.894;6.040;2023-01-08T03:54:23;4.57;;;1.48;;
52530;SDS011;38441;52.894;6.040;2023-01-08T03:56:53;7.60;;;2.50;;
52530;SDS011;38441;52.894;6.040;2023-01-08T03:59:19;5.18;;;2.10;;
52530;SDS011;38441;52.894;6.040;2023-01-08T04:01:44;5.13;;;1.95;;
52530;SDS011;38441;52.894;6.040;2023-01-08T04:04:10;4.88;;;2.00;;
52530;SDS011;38441;52.894;6.040;2023-01-08T04:06:36;5.20;;;1.98;;
52530;SDS011;38441;52.894;6.040;2023-01-08T04:09:02;5.47;;;2.20;;
52530;SDS011;38441;52.894;6.040;2023-01-08T04:11:28;3.33;;;1.85;;
52530;SDS011;38441;52.894;6.040;2023-01-08T04:13:53;4.80;;;2.03;;
52530;SDS011;38441;52.894;6.040;2023-01-08T04:16:19;4.82;;;2.22;;
52530;SDS011;38441;52.894;6.040;2023-01-08T04:18:45;4.75;;;1.98;;
52530;SDS011;38441;52.894;6.040;2023-01-08T04:21:11;5.25;;;2.13;;
52530;SDS011;38441;52.894;6.040;2023-01-08T04:23:36;5.88;;;1.88;;
52530;SDS011;38441;52.894;6.040;2023-01-08T04:26:05;3.97;;;2.15;;
52530;SDS011;38441;52.894;6.040;2023-01-08T04:28:32;6.32;;;2.30;;
52530;SDS011;38441;52.894;6.040;2023-01-08T04:30:59;4.78;;;1.83;;
52530;SDS011;38441;52.894;6.040;2023-01-08T04:33:24;4.22;;;2.08;;
52530;SDS011;38441;52.894;6.040;2023-01-08T04:35:50;3.67;;;1.98;;
52530;SDS011;38441;52.894;6.040;2023-01-08T04:38:16;4.55;;;2.22;;
52530;SDS011;38441;52.894;6.040;2023-01-08T04:40:41;4.93;;;2.17;;
52530;SDS011;38441;52.894;6.040;2023-01-08T04:43:08;6.32;;;1.90;;
52530;SDS011;38441;52.894;6.040;2023-01-08T04:45:33;4.88;;;1.90;;
52530;SDS011;38441;52.894;6.040;2023-01-08T04:47:59;4.18;;;1.85;;
52530;SDS011;38441;52.894;6.040;2023-01-08T04:50:25;5.43;;;1.80;;
52530;SDS011;38441;52.894;6.040;2023-01-08T04:52:51;6.10;;;1.77;;
52530;SDS011;38441;52.894;6.040;2023-01-08T04:55:17;4.68;;;1.77;;
52530;SDS011;38441;52.894;6.040;2023-01-08T04:57:42;6.03;;;1.98;;
52530;SDS011;38441;52.894;6.040;2023-01-08T05:00:08;7.45;;;1.50;;
52530;SDS011;38441;52.894;6.040;2023-01-08T05:02:34;6.68;;;1.70;;
52530;SDS011;38441;52.894;6.040;2023-01-08T05:05:00;4.32;;;1.70;;
52530;SDS011;38441;52.894;6.040;2023-01-08T05:07:26;3.58;;;1.40;;
52530;SDS011;38441;52.894;6.040;2023-01-08T05:09:51;2.78;;;1.25;;
52530;SDS011;38441;52.894;6.040;2023-01-08T05:12:17;4.97;;;1.48;;
52530;SDS011;38441;52.894;6.040;2023-01-08T05:14:43;6.03;;;1.30;;
52530;SDS011;38441;52.894;6.040;2023-01-08T05:17:08;3.88;;;1.58;;
52530;SDS011;38441;52.894;6.040;2023-01-08T05:19:34;3.85;;;1.10;;
52530;SDS011;38441;52.894;6.040;2023-01-08T05:22:00;2.50;;;1.15;;
52530;SDS011;38441;52.894;6.040;2023-01-08T05:24:25;3.55;;;1.23;;
52530;SDS011;38441;52.894;6.040;2023-01-08T05:26:51;4.78;;;1.17;;
52530;SDS011;38441;52.894;6.040;2023-01-08T05:29:16;4.13;;;1.00;;
52530;SDS011;38441;52.894;6.040;2023-01-08T05:31:42;5.43;;;1.73;;
52530;SDS011;38441;52.894;6.040;2023-01-08T05:34:09;4.72;;;1.30;;
52530;SDS011;38441;52.894;6.040;2023-01-08T05:36:34;8.93;;;1.60;;
52530;SDS011;38441;52.894;6.040;2023-01-08T05:39:00;4.25;;;1.50;;
52530;SDS011;38441;52.894;6.040;2023-01-08T05:41:25;3.85;;;1.17;;
52530;SDS011;38441;52.894;6.040;2023-01-08T05:43:51;5.38;;;1.60;;
52530;SDS011;38441;52.894;6.040;2023-01-08T05:46:16;4.22;;;1.20;;
52530;SDS011;38441;52.894;6.040;2023-01-08T05:48:42;4.45;;;1.45;;
52530;SDS011;38441;52.894;6.040;2023-01-08T05:51:07;5.03;;;1.30;;
52530;SDS011;38441;52.894;6.040;2023-01-08T05:53:33;4.65;;;1.15;;
52530;SDS011;38441;52.894;6.040;2023-01-08T05:56:04;3.88;;;1.23;;
52530;SDS011;38441;52.894;6.040;2023-01-08T05:58:32;2.15;;;1.13;;
52530;SDS011;38441;52.894;6.040;2023-01-08T06:01:07;5.00;;;1.65;;
52530;SDS011;38441;52.894;6.040;2023-01-08T06:03:37;2.70;;;1.20;;
52530;SDS011;38441;52.894;6.040;2023-01-08T06:06:03;10.35;;;1.58;;
52530;SDS011;38441;52.894;6.040;2023-01-08T06:08:31;3.80;;;1.60;;
52530;SDS011;38441;52.894;6.040;2023-01-08T06:11:04;3.67;;;1.73;;
52530;SDS011;38441;52.894;6.040;2023-01-08T06:13:31;5.80;;;1.70;;
52530;SDS011;38441;52.894;6.040;2023-01-08T06:15:58;3.35;;;1.80;;
52530;SDS011;38441;52.894;6.040;2023-01-08T06:18:24;4.65;;;2.28;;
52530;SDS011;38441;52.894;6.040;2023-01-08T06:20:50;4.95;;;2.00;;
52530;SDS011;38441;52.894;6.040;2023-01-08T06:23:16;6.45;;;2.20;;
52530;SDS011;38441;52.894;6.040;2023-01-08T06:25:41;4.43;;;1.90;;
52530;SDS011;38441;52.894;6.040;2023-01-08T06:28:07;6.63;;;2.85;;
52530;SDS011;38441;52.894;6.040;2023-01-08T06:30:32;4.40;;;2.50;;
52530;SDS011;38441;52.894;6.040;2023-01-08T06:32:59;6.07;;;2.20;;
52530;SDS011;38441;52.894;6.040;2023-01-08T06:35:25;5.38;;;2.35;;
52530;SDS011;38441;52.894;6.040;2023-01-08T06:37:53;4.47;;;2.35;;
52530;SDS011;38441;52.894;6.040;2023-01-08T06:40:20;7.50;;;2.13;;
52530;SDS011;38441;52.894;6.040;2023-01-08T06:42:46;7.07;;;2.33;;
52530;SDS011;38441;52.894;6.040;2023-01-08T06:45:12;3.40;;;2.10;;
52530;SDS011;38441;52.894;6.040;2023-01-08T06:47:37;4.00;;;2.13;;
52530;SDS011;38441;52.894;6.040;2023-01-08T06:50:03;6.20;;;2.35;;
52530;SDS011;38441;52.894;6.040;2023-01-08T06:52:30;4.20;;;1.90;;
52530;SDS011;38441;52.894;6.040;2023-01-08T06:54:59;5.13;;;2.25;;
52530;SDS011;38441;52.894;6.040;2023-01-08T06:57:29;5.53;;;2.03;;
52530;SDS011;38441;52.894;6.040;2023-01-08T06:59:55;3.92;;;1.67;;
52530;SDS011;38441;52.894;6.040;2023-01-08T07:02:20;4.88;;;1.70;;
52530;SDS011;38441;52.894;6.040;2023-01-08T07:04:46;6.28;;;1.95;;
52530;SDS011;38441;52.894;6.040;2023-01-08T07:07:12;7.32;;;1.95;;
52530;SDS011;38441;52.894;6.040;2023-01-08T07:09:39;5.85;;;2.22;;
52530;SDS011;38441;52.894;6.040;2023-01-08T07:12:14;7.25;;;1.90;;
52530;SDS011;38441;52.894;6.040;2023-01-08T07:14:40;5.07;;;2.17;;
52530;SDS011;38441;52.894;6.040;2023-01-08T07:17:06;6.88;;;2.20;;
52530;SDS011;38441;52.894;6.040;2023-01-08T07:19:32;5.22;;;1.92;;
52530;SDS011;38441;52.894;6.040;2023-01-08T07:21:57;4.25;;;1.92;;
52530;SDS011;38441;52.894;6.040;2023-01-08T07:24:23;7.28;;;1.98;;
52530;SDS011;38441;52.894;6.040;2023-01-08T07:26:49;8.07;;;2.35;;
52530;SDS011;38441;52.894;6.040;2023-01-08T07:29:14;8.77;;;3.08;;
52530;SDS011;38441;52.894;6.040;2023-01-08T07:31:40;4.45;;;1.98;;
52530;SDS011;38441;52.894;6.040;2023-01-08T07:34:05;6.15;;;1.85;;
52530;SDS011;38441;52.894;6.040;2023-01-08T07:36:31;4.85;;;2.28;;
52530;SDS011;38441;52.894;6.040;2023-01-08T07:38:57;5.13;;;1.70;;
52530;SDS011;38441;52.894;6.040;2023-01-08T07:41:22;5.35;;;1.80;;
52530;SDS011;38441;52.894;6.040;2023-01-08T07:43:48;6.85;;;2.42;;
52530;SDS011;38441;52.894;6.040;2023-01-08T07:46:14;6.93;;;1.55;;
52530;SDS011;38441;52.894;6.040;2023-01-08T07:48:40;4.28;;;1.77;;
52530;SDS011;38441;52.894;6.040;2023-01-08T07:51:06;4.38;;;1.75;;
52530;SDS011;38441;52.894;6.040;2023-01-08T07:53:32;6.78;;;1.77;;
52530;SDS011;38441;52.894;6.040;2023-01-08T07:56:02;5.40;;;1.45;;
52530;SDS011;38441;52.894;6.040;2023-01-08T07:58:29;5.97;;;1.35;;
52530;SDS011;38441;52.894;6.040;2023-01-08T08:00:55;3.85;;;1.30;;
52530;SDS011;38441;52.894;6.040;2023-01-08T08:03:21;7.97;;;1.23;;
52530;SDS011;38441;52.894;6.040;2023-01-08T08:05:47;5.68;;;1.42;;
52530;SDS011;38441;52.894;6.040;2023-01-08T08:08:13;6.43;;;1.63;;
52530;SDS011;38441;52.894;6.040;2023-01-08T08:14:04;6.70;;;1.38;;
52530;SDS011;38441;52.894;6.040;2023-01-08T08:16:31;5.60;;;1.42;;
52530;SDS011;38441;52.894;6.040;2023-01-08T08:18:57;6.85;;;1.48;;
52530;SDS011;38441;52.894;6.040;2023-01-08T08:21:23;5.57;;;1.77;;
52530;SDS011;38441;52.894;6.040;2023-01-08T08:23:49;5.38;;;1.40;;
52530;SDS011;38441;52.894;6.040;2023-01-08T08:26:15;6.03;;;1.60;;
52530;SDS011;38441;52.894;6.040;2023-01-08T08:28:41;6.63;;;1.70;;
52530;SDS011;38441;52.894;6.040;2023-01-08T08:31:07;6.43;;;1.33;;
52530;SDS011;38441;52.894;6.040;2023-01-08T08:33:32;5.00;;;1.58;;
52530;SDS011;38441;52.894;6.040;2023-01-08T08:35:58;5.93;;;1.52;;
52530;SDS011;38441;52.894;6.040;2023-01-08T08:38:23;4.13;;;1.80;;
52530;SDS011;38441;52.894;6.040;2023-01-08T08:40:50;4.97;;;1.60;;
52530;SDS011;38441;52.894;6.040;2023-01-08T08:43:16;7.22;;;1.33;;
52530;SDS011;38441;52.894;6.040;2023-01-08T08:45:42;6.53;;;1.90;;
52530;SDS011;38441;52.894;6.040;2023-01-08T08:48:07;4.38;;;1.65;;
52530;SDS011;38441;52.894;6.040;2023-01-08T08:50:33;3.80;;;1.80;;
52530;SDS011;38441;52.894;6.040;2023-01-08T08:53:00;6.38;;;1.80;;
52530;SDS011;38441;52.894;6.040;2023-01-08T08:55:27;6.22;;;2.00;;
52530;SDS011;38441;52.894;6.040;2023-01-08T08:57:53;4.35;;;1.83;;
52530;SDS011;38441;52.894;6.040;2023-01-08T09:00:19;6.25;;;1.80;;
52530;SDS011;38441;52.894;6.040;2023-01-08T09:02:45;4.82;;;1.40;;
52530;SDS011;38441;52.894;6.040;2023-01-08T09:05:13;9.05;;;2.10;;
52530;SDS011;38441;52.894;6.040;2023-01-08T09:07:38;6.20;;;1.80;;
52530;SDS011;38441;52.894;6.040;2023-01-08T09:10:04;5.65;;;1.98;;
52530;SDS011;38441;52.894;6.040;2023-01-08T09:12:30;6.10;;;1.50;;
52530;SDS011;38441;52.894;6.040;2023-01-08T09:14:56;7.18;;;1.63;;
52530;SDS011;38441;52.894;6.040;2023-01-08T09:17:21;6.65;;;1.50;;
52530;SDS011;38441;52.894;6.040;2023-01-08T09:19:49;5.00;;;1.83;;
52530;SDS011;38441;52.894;6.040;2023-01-08T09:22:14;4.53;;;1.58;;
52530;SDS011;38441;52.894;6.040;2023-01-08T09:24:40;4.63;;;1.67;;
52530;SDS011;38441;52.894;6.040;2023-01-08T09:27:05;8.80;;;1.77;;
52530;SDS011;38441;52.894;6.040;2023-01-08T09:29:31;6.68;;;1.40;;
52530;SDS011;38441;52.894;6.040;2023-01-08T09:31:56;8.02;;;1.75;;
52530;SDS011;38441;52.894;6.040;2023-01-08T09:34:24;5.95;;;1.95;;
52530;SDS011;38441;52.894;6.040;2023-01-08T09:36:50;6.55;;;1.45;;
52530;SDS011;38441;52.894;6.040;2023-01-08T09:39:16;4.80;;;1.40;;
52530;SDS011;38441;52.894;6.040;2023-01-08T09:41:43;5.97;;;1.40;;
52530;SDS011;38441;52.894;6.040;2023-01-08T09:44:16;7.97;;;1.77;;
52530;SDS011;38441;52.894;6.040;2023-01-08T09:46:43;8.70;;;1.80;;
52530;SDS011;38441;52.894;6.040;2023-01-08T09:49:11;10.43;;;1.80;;
52530;SDS011;38441;52.894;6.040;2023-01-08T09:51:43;7.45;;;1.85;;
52530;SDS011;38441;52.894;6.040;2023-01-08T09:54:10;12.43;;;1.83;;
52530;SDS011;38441;52.894;6.040;2023-01-08T09:56:40;9.27;;;1.73;;
52530;SDS011;38441;52.894;6.040;2023-01-08T09:59:06;12.38;;;2.10;;
52530;SDS011;38441;52.894;6.040;2023-01-08T10:01:37;10.03;;;1.97;;
52530;SDS011;38441;52.894;6.040;2023-01-08T10:06:39;9.85;;;1.85;;
52530;SDS011;38441;52.894;6.040;2023-01-08T10:09:05;6.75;;;1.70;;
52530;SDS011;38441;52.894;6.040;2023-01-08T10:11:41;6.85;;;1.38;;
52530;SDS011;38441;52.894;6.040;2023-01-08T10:14:18;6.88;;;1.52;;
52530;SDS011;38441;52.894;6.040;2023-01-08T10:16:48;8.75;;;1.48;;
52530;SDS011;38441;52.894;6.040;2023-01-08T10:19:18;6.60;;;1.23;;
52530;SDS011;38441;52.894;6.040;2023-01-08T10:21:44;12.55;;;1.92;;
52530;SDS011;38441;52.894;6.040;2023-01-08T10:24:10;10.32;;;2.05;;
52530;SDS011;38441;52.894;6.040;2023-01-08T10:26:36;8.32;;;1.50;;
52530;SDS011;38441;52.894;6.040;2023-01-08T10:29:18;6.25;;;1.20;;
52530;SDS011;38441;52.894;6.040;2023-01-08T10:34:20;9.90;;;1.50;;
52530;SDS011;38441;52.894;6.040;2023-01-08T10:37:12;5.50;;;1.35;;
52530;SDS011;38441;52.894;6.040;2023-01-08T10:39:54;11.13;;;1.20;;
52530;SDS011;38441;52.894;6.040;2023-01-08T10:42:23;9.45;;;1.92;;
52530;SDS011;38441;52.894;6.040;2023-01-08T10:44:57;6.25;;;1.13;;
52530;SDS011;38441;52.894;6.040;2023-01-08T10:47:26;12.52;;;1.48;;
52530;SDS011;38441;52.894;6.040;2023-01-08T10:49:54;8.02;;;1.55;;
52530;SDS011;38441;52.894;6.040;2023-01-08T10:52:30;8.38;;;1.25;;
52530;SDS011;38441;52.894;6.040;2023-01-08T10:55:09;6.47;;;1.50;;
52530;SDS011;38441;52.894;6.040;2023-01-08T10:57:54;7.95;;;1.48;;
52530;SDS011;38441;52.894;6.040;2023-01-08T11:00:26;7.15;;;1.30;;
52530;SDS011;38441;52.894;6.040;2023-01-08T11:02:57;6.63;;;1.23;;
52530;SDS011;38441;52.894;6.040;2023-01-08T11:05:33;6.90;;;1.70;;
52530;SDS011;38441;52.894;6.040;2023-01-08T11:08:04;5.47;;;1.23;;
52530;SDS011;38441;52.894;6.040;2023-01-08T11:10:36;10.23;;;1.50;;
52530;SDS011;38441;52.894;6.040;2023-01-08T11:13:03;8.07;;;2.20;;
52530;SDS011;38441;52.894;6.040;2023-01-08T11:15:38;10.02;;;1.90;;
52530;SDS011;38441;52.894;6.040;2023-01-08T11:18:09;5.70;;;1.33;;
52530;SDS011;38441;52.894;6.040;2023-01-08T11:20:49;6.95;;;1.25;;
52530;SDS011;38441;52.894;6.040;2023-01-08T11:25:42;10.52;;;1.85;;
52530;SDS011;38441;52.894;6.040;2023-01-08T11:28:38;6.50;;;1.63;;
52530;SDS011;38441;52.894;6.040;2023-01-08T11:31:35;7.80;;;1.50;;
52530;SDS011;38441;52.894;6.040;2023-01-08T11:34:15;9.30;;;1.67;;
52530;SDS011;38441;52.894;6.040;2023-01-08T11:37:08;8.45;;;1.70;;
52530;SDS011;38441;52.894;6.040;2023-01-08T11:39:38;8.10;;;2.08;;
52530;SDS011;38441;52.894;6.040;2023-01-08T11:44:58;7.15;;;1.80;;
52530;SDS011;38441;52.894;6.040;2023-01-08T11:47:54;6.90;;;2.40;;
52530;SDS011;38441;52.894;6.040;2023-01-08T11:50:58;12.15;;;2.80;;
52530;SDS011;38441;52.894;6.040;2023-01-08T11:57:05;6.40;;;1.92;;
52530;SDS011;38441;52.894;6.040;2023-01-08T12:02:50;10.80;;;2.13;;
52530;SDS011;38441;52.894;6.040;2023-01-08T12:11:02;13.85;;;2.17;;
52530;SDS011;38441;52.894;6.040;2023-01-08T12:16:47;10.57;;;2.85;;
52530;SDS011;38441;52.894;6.040;2023-01-08T12:19:32;11.50;;;2.50;;
52530;SDS011;38441;52.894;6.040;2023-01-08T12:22:21;7.43;;;2.08;;
52530;SDS011;38441;52.894;6.040;2023-01-08T12:27:56;5.97;;;2.00;;
52530;SDS011;38441;52.894;6.040;2023-01-08T12:30:38;7.50;;;1.95;;
52530;SDS011;38441;52.894;6.040;2023-01-08T12:33:38;11.70;;;2.28;;
52530;SDS011;38441;52.894;6.040;2023-01-08T12:38:38;13.10;;;2.42;;
52530;SDS011;38441;52.894;6.040;2023-01-08T12:41:11;9.63;;;2.15;;
52530;SDS011;38441;52.894;6.040;2023-01-08T12:44:03;11.27;;;2.10;;
52530;SDS011;38441;52.894;6.040;2023-01-08T12:46:34;7.75;;;2.10;;
52530;SDS011;38441;52.894;6.040;2023-01-08T12:49:03;9.93;;;2.15;;
52530;SDS011;38441;52.894;6.040;2023-01-08T12:51:52;7.88;;;2.03;;
52530;SDS011;38441;52.894;6.040;2023-01-08T12:54:44;5.05;;;1.38;;
52530;SDS011;38441;52.894;6.040;2023-01-08T13:02:48;10.27;;;1.73;;
52530;SDS011;38441;52.894;6.040;2023-01-08T13:07:48;7.07;;;1.52;;
52530;SDS011;38441;52.894;6.040;2023-01-08T13:13:01;10.73;;;1.70;;
52530;SDS011;38441;52.894;6.040;2023-01-08T13:15:28;5.40;;;1.88;;
52530;SDS011;38441;52.894;6.040;2023-01-08T13:17:56;6.18;;;1.48;;
52530;SDS011;38441;52.894;6.040;2023-01-08T13:20:27;7.35;;;1.58;;
52530;SDS011;38441;52.894;6.040;2023-01-08T13:22:55;7.20;;;1.52;;
52530;SDS011;38441;52.894;6.040;2023-01-08T13:27:53;4.47;;;1.52;;
52530;SDS011;38441;52.894;6.040;2023-01-08T13:32:57;8.13;;;1.23;;
52530;SDS011;38441;52.894;6.040;2023-01-08T13:35:29;5.75;;;1.13;;
52530;SDS011;38441;52.894;6.040;2023-01-08T13:43:17;8.82;;;1.25;;
52530;SDS011;38441;52.894;6.040;2023-01-08T13:48:36;4.97;;;1.10;;
52530;SDS011;38441;52.894;6.040;2023-01-08T13:51:04;7.75;;;1.40;;
52530;SDS011;38441;52.894;6.040;2023-01-08T13:53:30;5.18;;;1.20;;
52530;SDS011;38441;52.894;6.040;2023-01-08T13:55:58;9.77;;;1.45;;
52530;SDS011;38441;52.894;6.040;2023-01-08T13:58:27;4.60;;;1.45;;
52530;SDS011;38441;52.894;6.040;2023-01-08T14:00:57;5.82;;;1.10;;
52530;SDS011;38441;52.894;6.040;2023-01-08T14:03:26;7.07;;;1.30;;
52530;SDS011;38441;52.894;6.040;2023-01-08T14:08:47;5.32;;;1.25;;
52530;SDS011;38441;52.894;6.040;2023-01-08T14:11:42;6.35;;;1.60;;
52530;SDS011;38441;52.894;6.040;2023-01-08T14:14:17;6.05;;;1.33;;
52530;SDS011;38441;52.894;6.040;2023-01-08T14:16:47;3.90;;;1.40;;
52530;SDS011;38441;52.894;6.040;2023-01-08T14:19:19;4.57;;;0.80;;
52530;SDS011;38441;52.894;6.040;2023-01-08T14:21:54;4.43;;;1.00;;
52530;SDS011;38441;52.894;6.040;2023-01-08T14:24:25;3.10;;;0.73;;
52530;SDS011;38441;52.894;6.040;2023-01-08T14:26:56;5.72;;;1.20;;
52530;SDS011;38441;52.894;6.040;2023-01-08T14:29:27;4.80;;;0.93;;
52530;SDS011;38441;52.894;6.040;2023-01-08T14:31:56;6.60;;;1.05;;
52530;SDS011;38441;52.894;6.040;2023-01-08T14:34:25;5.13;;;1.52;;
52530;SDS011;38441;52.894;6.040;2023-01-08T14:36:54;4.20;;;1.17;;
52530;SDS011;38441;52.894;6.040;2023-01-08T14:39:21;3.50;;;1.33;;
52530;SDS011;38441;52.894;6.040;2023-01-08T14:41:55;4.53;;;1.40;;
52530;SDS011;38441;52.894;6.040;2023-01-08T14:44:57;7.00;;;1.40;;
52530;SDS011;38441;52.894;6.040;2023-01-08T14:47:28;5.97;;;1.10;;
52530;SDS011;38441;52.894;6.040;2023-01-08T14:49:58;2.30;;;0.88;;
52530;SDS011;38441;52.894;6.040;2023-01-08T14:52:24;3.55;;;1.20;;
52530;SDS011;38441;52.894;6.040;2023-01-08T14:54:51;3.83;;;1.13;;
52530;SDS011;38441;52.894;6.040;2023-01-08T14:57:20;1.77;;;0.75;;
52530;SDS011;38441;52.894;6.040;2023-01-08T14:59:49;3.00;;;1.00;;
52530;SDS011;38441;52.894;6.040;2023-01-08T15:02:25;4.13;;;0.93;;
52530;SDS011;38441;52.894;6.040;2023-01-08T15:05:00;3.25;;;0.90;;
52530;SDS011;38441;52.894;6.040;2023-01-08T15:07:53;2.67;;;0.80;;
52530;SDS011;38441;52.894;6.040;2023-01-08T15:10:22;6.13;;;1.00;;
52530;SDS011;38441;52.894;6.040;2023-01-08T15:12:56;6.97;;;1.20;;
52530;SDS011;38441;52.894;6.040;2023-01-08T15:15:24;3.40;;;0.88;;
52530;SDS011;38441;52.894;6.040;2023-01-08T15:17:51;3.05;;;0.73;;
52530;SDS011;38441;52.894;6.040;2023-01-08T15:20:18;4.10;;;0.85;;
52530;SDS011;38441;52.894;6.040;2023-01-08T15:22:46;3.63;;;0.82;;
52530;SDS011;38441;52.894;6.040;2023-01-08T15:25:17;4.78;;;0.70;;
52530;SDS011;38441;52.894;6.040;2023-01-08T15:27:58;2.08;;;0.73;;
52530;SDS011;38441;52.894;6.040;2023-01-08T15:30:28;3.80;;;0.98;;
52530;SDS011;38441;52.894;6.040;2023-01-08T15:33:23;2.75;;;0.85;;
52530;SDS011;38441;52.894;6.040;2023-01-08T15:35:49;2.78;;;0.70;;
52530;SDS011;38441;52.894;6.040;2023-01-08T15:38:16;4.82;;;1.00;;
52530;SDS011;38441;52.894;6.040;2023-01-08T15:40:44;2.70;;;0.90;;
52530;SDS011;38441;52.894;6.040;2023-01-08T15:43:12;2.25;;;0.73;;
52530;SDS011;38441;52.894;6.040;2023-01-08T15:45:45;2.58;;;1.05;;
52530;SDS011;38441;52.894;6.040;2023-01-08T15:48:12;2.85;;;0.70;;
52530;SDS011;38441;52.894;6.040;2023-01-08T15:50:39;2.50;;;0.73;;
52530;SDS011;38441;52.894;6.040;2023-01-08T15:53:18;3.00;;;0.90;;
52530;SDS011;38441;52.894;6.040;2023-01-08T15:55:48;4.88;;;0.93;;
52530;SDS011;38441;52.894;6.040;2023-01-08T15:58:14;3.90;;;0.90;;
52530;SDS011;38441;52.894;6.040;2023-01-08T16:00:41;3.00;;;0.90;;
52530;SDS011;38441;52.894;6.040;2023-01-08T16:03:08;4.85;;;0.95;;
52530;SDS011;38441;52.894;6.040;2023-01-08T16:05:35;4.63;;;0.88;;
52530;SDS011;38441;52.894;6.040;2023-01-08T16:08:01;4.20;;;0.90;;
52530;SDS011;38441;52.894;6.040;2023-01-08T16:10:27;3.30;;;0.80;;
52530;SDS011;38441;52.894;6.040;2023-01-08T16:12:53;4.10;;;0.98;;
52530;SDS011;38441;52.894;6.040;2023-01-08T16:15:18;3.20;;;1.25;;
52530;SDS011;38441;52.894;6.040;2023-01-08T16:17:44;3.42;;;0.88;;